Terminal Aerodrome Forecast
Issued by NWS

Home | Current Version | Previous Version | Text Only | Print | Product List | Glossary On
Versions: 1 2 3 4 5 6 7 8 9 10 11 12 13 14 15 16 17
000
FTUS45 KPIH 010500
TAFSUN
TAF
KSUN 010526Z 0106/0206 31010KT P6SM BKN150
     FM011700 VRB05KT P6SM SCT050 BKN090
     FM020300 VRB05KT 5SM BR VCSH BKN020 OVC040
      AMD LTD TO CLD VIS AND WIND TIL 011400=

USA.gov is the U.S. government's official web portal to all federal, state and local government web resources and services.